MMVA/VSA METAR and TAF weather

Enter ICAO airport designator
Station Type Date Time Source
MMVA METAR 2022/05/26 02:49 UTC NOAA

MMVA 260249Z 07017KT 6SM SCT017 OVC060 27/22 A2985 RMK SLP107 52034 931 8/66/ CBS TS E


Station Type Date Time Source
MMVA Decoded METAR 2022/05/26 02:49 UTC NOAA

Villahermosa , Mexico (MMVA) 18-00N 092-49W
May 25, 2022 - 10:49 PM EDT / 2022.05.26 0249 UTC
Wind: from the ENE (070 degrees) at 20 MPH (17 KT):0
Visibility: 6 mile(s):0
Sky conditions: overcast
Weather: Cumulonimbus clouds observed
Temperature: 80 F (27 C)
Dew Point: 71 F (22 C)
Relative Humidity: 74%
Pressure (altimeter): 29.85 in. Hg (1010 hPa)
Pressure tendency: 0.10 inches (3.4 hPa) higher than three hours ago
ob: MMVA 260249Z 07017KT 6SM SCT017 OVC060 27/22 A2985 RMK SLP107 52034 931 8/66/ CBS TS E
cycle: 3

Station Type Date Time Source
MMVA TAF 2022/05/25 18:11 UTC NOAA

TAF MMVA 251705Z 2518/2618 06010KT P6SM SCT015 BKN250 PROB40 2602/2606 3SM TSRA BKN010CB
FM261200 00000KT 3SM HZ FU SCT015
FM261500 00000KT 5SM HZ BKN015

Example: see airport list